Alteheide, Germany

9:21 AM CEST on May 30, 2017 (GMT +0200)
Klothmanns Kamp | | Change Station

Elev 226 ft 51.58 °N, 7.72 °E | Updated 9 minutes ago

Partly Cloudy
Partly Cloudy
74.7 °F
Feels Like 77 °F
N
5.0
Wind Variable Wind from North
Gusts 12.4 mph

Today
High -- | Low -- °F
--% Chance of Precip.
Yesterday
High -- | Low -- °F
Precip. -- in
Pressure 29.92 in
Visibility -9999.0 miles
Clouds
Heat Index 77 °F
Dew Point 62 °F
Humidity 65%
Rainfall 0.00 in
Snow Depth Not available.
5:18 AM 9:35 PM
Waxing Crescent, 27% visible
METAR EDLW 300650Z 26006KT 220V310 CAVOK 20/15 Q1013
Pressure 29.92 in
Visibility -9999.0 miles
Clouds
Heat Index 77 °F
Dew Point 62 °F
Humidity 65%
Rainfall 0.00 in
Snow Depth Not available.
5:18 AM 9:35 PM
Waxing Crescent, 27% visible
METAR EDLW 300650Z 26006KT 220V310 CAVOK 20/15 Q1013

Get Severe Weather Alerts

Thanks for signing up!

Be on the lookout for a verification email in your inbox.

You'll start receiving the daily forecast at 6 AM.

×

10-Day Weather Forecast

×

Almanac

Astronomy

May. 30, 2017 Rise Set
Actual Time
Civil Twilight
Nautical Twilight
Astronomical Twilight
Moon
Length of Visible Light
Length of Day
Tomorrow will be .
, % of the Moon is Illuminated

Today's Extremes

Country Highs Country Lows

Community

WunderPhotos

Category 6

Welcome to Category 6. This is the collective home for Weather Underground's featured writeups by Dr. Jeff Masters (right), Bob Henson (left), Chris Burt, and other regular contributors.

Nearby

Air Quality

  Air Quality AQ Index Pollutant
Not available.

Snow Depth

Station Depth Elevation

Earthquake Activity

City Distance Mag. Time & Date
Minimum magnitude displayed is 2.5.

Coastal Water Temperatures

Place Temperature

Stations

Nearby Weather Stations

Station Location Temp. Windchill Dew Point Humidity Wind Precip. Elev Updated Type